sensor_id;sensor_type;location;lat;lon;timestamp;temperature;humidity
74458;SHT31;62896;51.032;3.712;2023-12-07T00:01:50;1.3;100
74458;SHT31;62896;51.032;3.712;2023-12-07T00:05:10;1.6;100
74458;SHT31;62896;51.032;3.712;2023-12-07T00:08:30;1.6;100
74458;SHT31;62896;51.032;3.712;2023-12-07T00:11:50;1.6;100
74458;SHT31;62896;51.032;3.712;2023-12-07T00:15:10;1.7;100
74458;SHT31;62896;51.032;3.712;2023-12-07T00:18:30;1.7;100
74458;SHT31;62896;51.032;3.712;2023-12-07T00:21:50;1.7;100
74458;SHT31;62896;51.032;3.712;2023-12-07T00:25:10;1.9;100
74458;SHT31;62896;51.032;3.712;2023-12-07T00:28:30;1.9;100
74458;SHT31;62896;51.032;3.712;2023-12-07T00:31:50;1.9;100
74458;SHT31;62896;51.032;3.712;2023-12-07T00:35:10;2.1;100
74458;SHT31;62896;51.032;3.712;2023-12-07T00:38:30;2.1;100
74458;SHT31;62896;51.032;3.712;2023-12-07T00:41:50;2.1;100
74458;SHT31;62896;51.032;3.712;2023-12-07T00:45:11;2.1;100
74458;SHT31;62896;51.032;3.712;2023-12-07T00:48:30;2.1;100
74458;SHT31;62896;51.032;3.712;2023-12-07T00:51:50;2.1;100
74458;SHT31;62896;51.032;3.712;2023-12-07T00:55:10;2.2;100
74458;SHT31;62896;51.032;3.712;2023-12-07T00:58:30;2.2;100
74458;SHT31;62896;51.032;3.712;2023-12-07T01:01:50;2.2;100
74458;SHT31;62896;51.032;3.712;2023-12-07T01:05:10;2.2;100
74458;SHT31;62896;51.032;3.712;2023-12-07T01:08:30;2.2;100
74458;SHT31;62896;51.032;3.712;2023-12-07T01:11:50;2.2;100
74458;SHT31;62896;51.032;3.712;2023-12-07T01:15:10;2.3;100
74458;SHT31;62896;51.032;3.712;2023-12-07T01:18:30;2.3;100
74458;SHT31;62896;51.032;3.712;2023-12-07T01:21:50;2.3;100
74458;SHT31;62896;51.032;3.712;2023-12-07T01:25:10;2.4;100
74458;SHT31;62896;51.032;3.712;2023-12-07T01:28:30;2.4;100
74458;SHT31;62896;51.032;3.712;2023-12-07T01:31:50;2.4;100
74458;SHT31;62896;51.032;3.712;2023-12-07T01:35:10;2.6;100
74458;SHT31;62896;51.032;3.712;2023-12-07T01:38:30;2.6;100
74458;SHT31;62896;51.032;3.712;2023-12-07T01:41:50;2.6;100
74458;SHT31;62896;51.032;3.712;2023-12-07T01:45:10;2.7;100
74458;SHT31;62896;51.032;3.712;2023-12-07T01:48:30;2.7;100
74458;SHT31;62896;51.032;3.712;2023-12-07T01:51:50;2.7;100
74458;SHT31;62896;51.032;3.712;2023-12-07T01:55:10;2.8;100
74458;SHT31;62896;51.032;3.712;2023-12-07T01:58:30;2.8;100
74458;SHT31;62896;51.032;3.712;2023-12-07T02:01:50;2.8;100
74458;SHT31;62896;51.032;3.712;2023-12-07T02:05:10;2.8;100
74458;SHT31;62896;51.032;3.712;2023-12-07T02:08:30;2.8;100
74458;SHT31;62896;51.032;3.712;2023-12-07T02:11:50;2.8;100
74458;SHT31;62896;51.032;3.712;2023-12-07T02:15:10;2.9;100
74458;SHT31;62896;51.032;3.712;2023-12-07T02:18:31;2.9;100
74458;SHT31;62896;51.032;3.712;2023-12-07T02:21:50;2.9;100
74458;SHT31;62896;51.032;3.712;2023-12-07T02:25:10;2.9;100
74458;SHT31;62896;51.032;3.712;2023-12-07T02:28:30;2.9;100
74458;SHT31;62896;51.032;3.712;2023-12-07T02:31:50;2.9;100
74458;SHT31;62896;51.032;3.712;2023-12-07T02:35:10;2.9;100
74458;SHT31;62896;51.032;3.712;2023-12-07T02:38:30;2.9;100
74458;SHT31;62896;51.032;3.712;2023-12-07T02:41:50;2.9;100
74458;SHT31;62896;51.032;3.712;2023-12-07T02:45:10;3;100
74458;SHT31;62896;51.032;3.712;2023-12-07T02:48:30;3;100
74458;SHT31;62896;51.032;3.712;2023-12-07T02:51:50;3;100
74458;SHT31;62896;51.032;3.712;2023-12-07T02:55:10;3;100
74458;SHT31;62896;51.032;3.712;2023-12-07T02:58:30;3;100
74458;SHT31;62896;51.032;3.712;2023-12-07T03:01:50;3;100
74458;SHT31;62896;51.032;3.712;2023-12-07T03:05:10;3.1;100
74458;SHT31;62896;51.032;3.712;2023-12-07T03:08:30;3.1;100
74458;SHT31;62896;51.032;3.712;2023-12-07T03:11:50;3.1;100
74458;SHT31;62896;51.032;3.712;2023-12-07T03:15:10;2.9;100
74458;SHT31;62896;51.032;3.712;2023-12-07T03:18:30;2.9;100
74458;SHT31;62896;51.032;3.712;2023-12-07T03:21:50;2.9;100
74458;SHT31;62896;51.032;3.712;2023-12-07T03:25:10;2.9;100
74458;SHT31;62896;51.032;3.712;2023-12-07T03:28:30;2.9;100
74458;SHT31;62896;51.032;3.712;2023-12-07T03:31:50;2.9;100
74458;SHT31;62896;51.032;3.712;2023-12-07T03:35:10;3;100
74458;SHT31;62896;51.032;3.712;2023-12-07T03:38:30;3;100
74458;SHT31;62896;51.032;3.712;2023-12-07T03:41:50;3;100
74458;SHT31;62896;51.032;3.712;2023-12-07T03:45:10;3;100
74458;SHT31;62896;51.032;3.712;2023-12-07T03:48:30;3;100
74458;SHT31;62896;51.032;3.712;2023-12-07T03:51:50;3;100
74458;SHT31;62896;51.032;3.712;2023-12-07T03:55:10;2.9;100
74458;SHT31;62896;51.032;3.712;2023-12-07T03:58:30;2.9;100
74458;SHT31;62896;51.032;3.712;2023-12-07T04:01:50;2.9;100
74458;SHT31;62896;51.032;3.712;2023-12-07T04:05:10;2.9;100
74458;SHT31;62896;51.032;3.712;2023-12-07T04:08:30;2.9;100
74458;SHT31;62896;51.032;3.712;2023-12-07T04:11:50;2.9;100
74458;SHT31;62896;51.032;3.712;2023-12-07T04:15:10;3;100
74458;SHT31;62896;51.032;3.712;2023-12-07T04:18:30;3;100
74458;SHT31;62896;51.032;3.712;2023-12-07T04:21:50;3;100
74458;SHT31;62896;51.032;3.712;2023-12-07T04:25:10;2.9;100
74458;SHT31;62896;51.032;3.712;2023-12-07T04:28:30;2.9;100
74458;SHT31;62896;51.032;3.712;2023-12-07T04:31:50;2.9;100
74458;SHT31;62896;51.032;3.712;2023-12-07T04:35:10;2.9;100
74458;SHT31;62896;51.032;3.712;2023-12-07T04:38:30;2.9;100
74458;SHT31;62896;51.032;3.712;2023-12-07T04:41:50;2.9;100
74458;SHT31;62896;51.032;3.712;2023-12-07T04:45:10;3;100
74458;SHT31;62896;51.032;3.712;2023-12-07T04:48:30;3;100
74458;SHT31;62896;51.032;3.712;2023-12-07T04:51:50;3;100
74458;SHT31;62896;51.032;3.712;2023-12-07T04:55:10;3.1;100
74458;SHT31;62896;51.032;3.712;2023-12-07T04:58:30;3.1;100
74458;SHT31;62896;51.032;3.712;2023-12-07T05:01:50;3.1;100
74458;SHT31;62896;51.032;3.712;2023-12-07T05:05:10;3.2;100
74458;SHT31;62896;51.032;3.712;2023-12-07T05:08:30;3.2;100
74458;SHT31;62896;51.032;3.712;2023-12-07T05:11:50;3.2;100
74458;SHT31;62896;51.032;3.712;2023-12-07T05:15:10;3.2;100
74458;SHT31;62896;51.032;3.712;2023-12-07T05:18:30;3.2;100
74458;SHT31;62896;51.032;3.712;2023-12-07T05:21:50;3.2;100
74458;SHT31;62896;51.032;3.712;2023-12-07T05:25:10;3.3;100
74458;SHT31;62896;51.032;3.712;2023-12-07T05:28:30;3.3;100
74458;SHT31;62896;51.032;3.712;2023-12-07T05:31:50;3.3;100
74458;SHT31;62896;51.032;3.712;2023-12-07T05:35:10;3.4;99
74458;SHT31;62896;51.032;3.712;2023-12-07T05:38:30;3.4;99
74458;SHT31;62896;51.032;3.712;2023-12-07T05:41:50;3.4;99
74458;SHT31;62896;51.032;3.712;2023-12-07T05:45:10;3.4;99
74458;SHT31;62896;51.032;3.712;2023-12-07T05:48:30;3.4;99
74458;SHT31;62896;51.032;3.712;2023-12-07T05:51:50;3.4;99
74458;SHT31;62896;51.032;3.712;2023-12-07T05:55:10;3.3;98
74458;SHT31;62896;51.032;3.712;2023-12-07T05:58:30;3.3;98
74458;SHT31;62896;51.032;3.712;2023-12-07T06:01:51;3.3;98
74458;SHT31;62896;51.032;3.712;2023-12-07T06:05:10;3.3;97
74458;SHT31;62896;51.032;3.712;2023-12-07T06:08:30;3.3;97
74458;SHT31;62896;51.032;3.712;2023-12-07T06:11:50;3.3;97
74458;SHT31;62896;51.032;3.712;2023-12-07T06:15:10;3.4;97
74458;SHT31;62896;51.032;3.712;2023-12-07T06:18:30;3.4;97
74458;SHT31;62896;51.032;3.712;2023-12-07T06:21:50;3.4;97
74458;SHT31;62896;51.032;3.712;2023-12-07T06:25:10;3.4;97
74458;SHT31;62896;51.032;3.712;2023-12-07T06:28:30;3.4;97
74458;SHT31;62896;51.032;3.712;2023-12-07T06:31:50;3.4;97
74458;SHT31;62896;51.032;3.712;2023-12-07T06:35:11;3.4;97
74458;SHT31;62896;51.032;3.712;2023-12-07T06:38:30;3.4;97
74458;SHT31;62896;51.032;3.712;2023-12-07T06:41:50;3.4;97
74458;SHT31;62896;51.032;3.712;2023-12-07T06:45:10;3.4;97
74458;SHT31;62896;51.032;3.712;2023-12-07T06:48:30;3.4;97
74458;SHT31;62896;51.032;3.712;2023-12-07T06:51:50;3.4;97
74458;SHT31;62896;51.032;3.712;2023-12-07T06:55:10;3.5;97
74458;SHT31;62896;51.032;3.712;2023-12-07T06:58:30;3.5;97
74458;SHT31;62896;51.032;3.712;2023-12-07T07:01:50;3.5;97
74458;SHT31;62896;51.032;3.712;2023-12-07T07:05:10;3.5;97
74458;SHT31;62896;51.032;3.712;2023-12-07T07:08:30;3.5;97
74458;SHT31;62896;51.032;3.712;2023-12-07T07:11:50;3.5;97
74458;SHT31;62896;51.032;3.712;2023-12-07T07:15:10;3.5;97
74458;SHT31;62896;51.032;3.712;2023-12-07T07:18:30;3.5;97
74458;SHT31;62896;51.032;3.712;2023-12-07T07:21:50;3.5;97
74458;SHT31;62896;51.032;3.712;2023-12-07T07:25:10;3.6;96
74458;SHT31;62896;51.032;3.712;2023-12-07T07:28:31;3.6;96
74458;SHT31;62896;51.032;3.712;2023-12-07T07:31:50;3.6;96
74458;SHT31;62896;51.032;3.712;2023-12-07T07:35:10;3.6;96
74458;SHT31;62896;51.032;3.712;2023-12-07T07:38:30;3.6;96
74458;SHT31;62896;51.032;3.712;2023-12-07T07:41:50;3.6;96
74458;SHT31;62896;51.032;3.712;2023-12-07T07:45:10;3.6;96
74458;SHT31;62896;51.032;3.712;2023-12-07T07:48:30;3.6;96
74458;SHT31;62896;51.032;3.712;2023-12-07T07:51:50;3.6;96
74458;SHT31;62896;51.032;3.712;2023-12-07T07:55:10;3.6;96
74458;SHT31;62896;51.032;3.712;2023-12-07T07:58:30;3.6;96
74458;SHT31;62896;51.032;3.712;2023-12-07T08:01:50;3.6;96
74458;SHT31;62896;51.032;3.712;2023-12-07T08:05:10;3.7;97
74458;SHT31;62896;51.032;3.712;2023-12-07T08:08:30;3.7;97
74458;SHT31;62896;51.032;3.712;2023-12-07T08:11:50;3.7;97
74458;SHT31;62896;51.032;3.712;2023-12-07T08:15:10;3.8;97
74458;SHT31;62896;51.032;3.712;2023-12-07T08:18:30;3.8;97
74458;SHT31;62896;51.032;3.712;2023-12-07T08:21:50;3.8;97
74458;SHT31;62896;51.032;3.712;2023-12-07T08:25:10;3.8;96
74458;SHT31;62896;51.032;3.712;2023-12-07T08:28:30;3.8;96
74458;SHT31;62896;51.032;3.712;2023-12-07T08:31:50;3.8;96
74458;SHT31;62896;51.032;3.712;2023-12-07T08:35:10;3.8;96
74458;SHT31;62896;51.032;3.712;2023-12-07T08:38:30;3.8;96
74458;SHT31;62896;51.032;3.712;2023-12-07T08:41:50;3.8;96
74458;SHT31;62896;51.032;3.712;2023-12-07T08:45:10;3.8;96
74458;SHT31;62896;51.032;3.712;2023-12-07T08:48:30;3.8;96
74458;SHT31;62896;51.032;3.712;2023-12-07T08:51:50;3.8;96
74458;SHT31;62896;51.032;3.712;2023-12-07T08:55:10;3.8;96
74458;SHT31;62896;51.032;3.712;2023-12-07T08:58:30;3.8;96
74458;SHT31;62896;51.032;3.712;2023-12-07T09:01:50;3.8;96
74458;SHT31;62896;51.032;3.712;2023-12-07T09:05:10;3.9;96
74458;SHT31;62896;51.032;3.712;2023-12-07T09:08:30;3.9;96
74458;SHT31;62896;51.032;3.712;2023-12-07T09:11:50;3.9;96
74458;SHT31;62896;51.032;3.712;2023-12-07T09:15:10;3.9;95
74458;SHT31;62896;51.032;3.712;2023-12-07T09:18:30;3.9;95
74458;SHT31;62896;51.032;3.712;2023-12-07T09:21:50;3.9;95
74458;SHT31;62896;51.032;3.712;2023-12-07T09:25:10;4;95
74458;SHT31;62896;51.032;3.712;2023-12-07T09:31:50;4;95
74458;SHT31;62896;51.032;3.712;2023-12-07T09:35:10;4.1;94
74458;SHT31;62896;51.032;3.712;2023-12-07T09:38:30;4.1;94
74458;SHT31;62896;51.032;3.712;2023-12-07T09:41:50;4.1;94
74458;SHT31;62896;51.032;3.712;2023-12-07T09:45:10;4.3;94
74458;SHT31;62896;51.032;3.712;2023-12-07T09:48:30;4.3;94
74458;SHT31;62896;51.032;3.712;2023-12-07T09:51:50;4.3;94
74458;SHT31;62896;51.032;3.712;2023-12-07T09:55:10;4.6;93
74458;SHT31;62896;51.032;3.712;2023-12-07T09:58:30;4.6;93
74458;SHT31;62896;51.032;3.712;2023-12-07T10:01:50;4.6;93
74458;SHT31;62896;51.032;3.712;2023-12-07T10:05:11;4.6;92
74458;SHT31;62896;51.032;3.712;2023-12-07T10:08:31;4.6;92
74458;SHT31;62896;51.032;3.712;2023-12-07T10:11:50;4.6;92
74458;SHT31;62896;51.032;3.712;2023-12-07T10:15:11;4.8;92
74458;SHT31;62896;51.032;3.712;2023-12-07T10:18:30;4.8;92
74458;SHT31;62896;51.032;3.712;2023-12-07T10:21:51;4.8;92
74458;SHT31;62896;51.032;3.712;2023-12-07T10:25:10;4.8;91
74458;SHT31;62896;51.032;3.712;2023-12-07T10:28:30;4.8;91
74458;SHT31;62896;51.032;3.712;2023-12-07T10:31:50;4.8;91
74458;SHT31;62896;51.032;3.712;2023-12-07T10:35:10;4.8;91
74458;SHT31;62896;51.032;3.712;2023-12-07T10:38:30;4.8;91
74458;SHT31;62896;51.032;3.712;2023-12-07T10:41:50;4.8;91
74458;SHT31;62896;51.032;3.712;2023-12-07T10:45:10;4.9;91
74458;SHT31;62896;51.032;3.712;2023-12-07T10:48:30;4.9;91
74458;SHT31;62896;51.032;3.712;2023-12-07T10:51:51;4.9;91
74458;SHT31;62896;51.032;3.712;2023-12-07T10:55:13;5.1;91
74458;SHT31;62896;51.032;3.712;2023-12-07T10:58:30;5.1;91
74458;SHT31;62896;51.032;3.712;2023-12-07T11:01:50;5.1;91
74458;SHT31;62896;51.032;3.712;2023-12-07T11:05:10;5.4;89
74458;SHT31;62896;51.032;3.712;2023-12-07T11:08:31;5.4;89
74458;SHT31;62896;51.032;3.712;2023-12-07T11:11:51;5.4;89
74458;SHT31;62896;51.032;3.712;2023-12-07T11:15:10;5.6;89
74458;SHT31;62896;51.032;3.712;2023-12-07T11:18:30;5.6;89
74458;SHT31;62896;51.032;3.712;2023-12-07T11:21:50;5.6;89
74458;SHT31;62896;51.032;3.712;2023-12-07T11:25:10;5.6;88
74458;SHT31;62896;51.032;3.712;2023-12-07T11:28:34;5.6;88
74458;SHT31;62896;51.032;3.712;2023-12-07T11:31:50;5.6;88
74458;SHT31;62896;51.032;3.712;2023-12-07T11:35:12;5.6;88
74458;SHT31;62896;51.032;3.712;2023-12-07T11:38:30;5.6;88
74458;SHT31;62896;51.032;3.712;2023-12-07T11:41:51;5.6;88
74458;SHT31;62896;51.032;3.712;2023-12-07T11:45:10;5.6;88
74458;SHT31;62896;51.032;3.712;2023-12-07T11:48:30;5.6;88
74458;SHT31;62896;51.032;3.712;2023-12-07T11:51:50;5.6;88
74458;SHT31;62896;51.032;3.712;2023-12-07T11:55:10;5.7;88
74458;SHT31;62896;51.032;3.712;2023-12-07T11:58:31;5.7;88
74458;SHT31;62896;51.032;3.712;2023-12-07T12:01:50;5.7;88
74458;SHT31;62896;51.032;3.712;2023-12-07T12:05:10;5.8;87
74458;SHT31;62896;51.032;3.712;2023-12-07T12:08:30;5.8;87
74458;SHT31;62896;51.032;3.712;2023-12-07T12:11:50;5.8;87
74458;SHT31;62896;51.032;3.712;2023-12-07T12:15:10;5.8;86
74458;SHT31;62896;51.032;3.712;2023-12-07T12:18:30;5.8;86
74458;SHT31;62896;51.032;3.712;2023-12-07T12:21:50;5.8;86
74458;SHT31;62896;51.032;3.712;2023-12-07T12:25:10;5.9;85
74458;SHT31;62896;51.032;3.712;2023-12-07T12:28:30;5.9;85
74458;SHT31;62896;51.032;3.712;2023-12-07T12:31:50;5.9;85
74458;SHT31;62896;51.032;3.712;2023-12-07T12:35:10;5.9;85
74458;SHT31;62896;51.032;3.712;2023-12-07T12:38:30;5.9;85
74458;SHT31;62896;51.032;3.712;2023-12-07T12:41:53;5.9;85
74458;SHT31;62896;51.032;3.712;2023-12-07T12:45:10;6;84
74458;SHT31;62896;51.032;3.712;2023-12-07T12:48:30;6;84
74458;SHT31;62896;51.032;3.712;2023-12-07T12:51:50;6;84
74458;SHT31;62896;51.032;3.712;2023-12-07T12:55:10;6;83
74458;SHT31;62896;51.032;3.712;2023-12-07T12:58:30;6;83
74458;SHT31;62896;51.032;3.712;2023-12-07T13:01:50;6;83
74458;SHT31;62896;51.032;3.712;2023-12-07T13:05:10;6;83
74458;SHT31;62896;51.032;3.712;2023-12-07T13:08:30;6;83
74458;SHT31;62896;51.032;3.712;2023-12-07T13:11:50;6;83
74458;SHT31;62896;51.032;3.712;2023-12-07T13:15:10;6.1;82
74458;SHT31;62896;51.032;3.712;2023-12-07T13:18:30;6.1;82
74458;SHT31;62896;51.032;3.712;2023-12-07T13:21:50;6.1;82
74458;SHT31;62896;51.032;3.712;2023-12-07T13:25:11;6.1;82
74458;SHT31;62896;51.032;3.712;2023-12-07T13:28:30;6.1;82
74458;SHT31;62896;51.032;3.712;2023-12-07T13:31:50;6.1;82
74458;SHT31;62896;51.032;3.712;2023-12-07T13:35:10;6.1;82
74458;SHT31;62896;51.032;3.712;2023-12-07T13:38:30;6.1;82
74458;SHT31;62896;51.032;3.712;2023-12-07T13:41:50;6.1;82
74458;SHT31;62896;51.032;3.712;2023-12-07T13:45:10;6.2;81
74458;SHT31;62896;51.032;3.712;2023-12-07T13:48:30;6.2;81
74458;SHT31;62896;51.032;3.712;2023-12-07T13:51:50;6.2;81
74458;SHT31;62896;51.032;3.712;2023-12-07T13:55:10;6.1;81
74458;SHT31;62896;51.032;3.712;2023-12-07T13:58:30;6.1;81
74458;SHT31;62896;51.032;3.712;2023-12-07T14:01:50;6.1;81
74458;SHT31;62896;51.032;3.712;2023-12-07T14:05:10;6;81
74458;SHT31;62896;51.032;3.712;2023-12-07T14:08:30;6;81
74458;SHT31;62896;51.032;3.712;2023-12-07T14:11:50;6;81
74458;SHT31;62896;51.032;3.712;2023-12-07T14:15:10;5.9;81
74458;SHT31;62896;51.032;3.712;2023-12-07T14:18:30;5.9;81
74458;SHT31;62896;51.032;3.712;2023-12-07T14:21:50;5.9;81
74458;SHT31;62896;51.032;3.712;2023-12-07T14:25:10;5.9;81
74458;SHT31;62896;51.032;3.712;2023-12-07T14:28:30;5.9;81
74458;SHT31;62896;51.032;3.712;2023-12-07T14:31:50;5.9;81
74458;SHT31;62896;51.032;3.712;2023-12-07T14:35:10;5.8;80
74458;SHT31;62896;51.032;3.712;2023-12-07T14:38:30;5.8;80
74458;SHT31;62896;51.032;3.712;2023-12-07T14:41:50;5.8;80
74458;SHT31;62896;51.032;3.712;2023-12-07T14:45:10;5.7;81
74458;SHT31;62896;51.032;3.712;2023-12-07T14:48:30;5.7;81
74458;SHT31;62896;51.032;3.712;2023-12-07T14:51:50;5.7;81
74458;SHT31;62896;51.032;3.712;2023-12-07T14:55:10;5.6;81
74458;SHT31;62896;51.032;3.712;2023-12-07T14:58:30;5.6;81
74458;SHT31;62896;51.032;3.712;2023-12-07T15:01:50;5.6;81
74458;SHT31;62896;51.032;3.712;2023-12-07T15:05:10;5.5;81
74458;SHT31;62896;51.032;3.712;2023-12-07T15:08:30;5.5;81
74458;SHT31;62896;51.032;3.712;2023-12-07T15:11:50;5.5;81
74458;SHT31;62896;51.032;3.712;2023-12-07T15:15:10;5.5;81
74458;SHT31;62896;51.032;3.712;2023-12-07T15:18:30;5.5;81
74458;SHT31;62896;51.032;3.712;2023-12-07T15:21:50;5.5;81
74458;SHT31;62896;51.032;3.712;2023-12-07T15:25:10;5.5;82
74458;SHT31;62896;51.032;3.712;2023-12-07T15:28:30;5.5;82
74458;SHT31;62896;51.032;3.712;2023-12-07T15:31:50;5.5;82
74458;SHT31;62896;51.032;3.712;2023-12-07T15:35:10;5.3;82
74458;SHT31;62896;51.032;3.712;2023-12-07T15:38:30;5.3;82
74458;SHT31;62896;51.032;3.712;2023-12-07T15:41:50;5.3;82
74458;SHT31;62896;51.032;3.712;2023-12-07T15:45:10;5.3;82
74458;SHT31;62896;51.032;3.712;2023-12-07T15:48:30;5.3;82
74458;SHT31;62896;51.032;3.712;2023-12-07T15:51:50;5.3;82
74458;SHT31;62896;51.032;3.712;2023-12-07T15:55:10;5.2;83
74458;SHT31;62896;51.032;3.712;2023-12-07T15:58:30;5.2;83
74458;SHT31;62896;51.032;3.712;2023-12-07T16:01:50;5.2;83
74458;SHT31;62896;51.032;3.712;2023-12-07T16:05:10;5.2;83
74458;SHT31;62896;51.032;3.712;2023-12-07T16:08:30;5.2;83
74458;SHT31;62896;51.032;3.712;2023-12-07T16:11:50;5.2;83
74458;SHT31;62896;51.032;3.712;2023-12-07T16:15:10;5.2;82
74458;SHT31;62896;51.032;3.712;2023-12-07T16:18:30;5.2;82
74458;SHT31;62896;51.032;3.712;2023-12-07T16:21:50;5.2;82
74458;SHT31;62896;51.032;3.712;2023-12-07T16:25:10;5.3;82
74458;SHT31;62896;51.032;3.712;2023-12-07T16:28:30;5.3;82
74458;SHT31;62896;51.032;3.712;2023-12-07T16:31:50;5.3;82
74458;SHT31;62896;51.032;3.712;2023-12-07T16:35:10;5.2;82
74458;SHT31;62896;51.032;3.712;2023-12-07T16:38:30;5.2;82
74458;SHT31;62896;51.032;3.712;2023-12-07T16:41:50;5.2;82
74458;SHT31;62896;51.032;3.712;2023-12-07T16:45:10;5.2;82
74458;SHT31;62896;51.032;3.712;2023-12-07T16:48:30;5.2;82
74458;SHT31;62896;51.032;3.712;2023-12-07T16:51:50;5.2;82
74458;SHT31;62896;51.032;3.712;2023-12-07T16:55:10;5.2;82
74458;SHT31;62896;51.032;3.712;2023-12-07T16:58:30;5.2;82
74458;SHT31;62896;51.032;3.712;2023-12-07T17:01:50;5.2;82
74458;SHT31;62896;51.032;3.712;2023-12-07T17:05:10;5.3;81
74458;SHT31;62896;51.032;3.712;2023-12-07T17:08:30;5.3;81
74458;SHT31;62896;51.032;3.712;2023-12-07T17:11:50;5.3;81
74458;SHT31;62896;51.032;3.712;2023-12-07T17:15:10;5.4;81
74458;SHT31;62896;51.032;3.712;2023-12-07T17:18:31;5.4;81
74458;SHT31;62896;51.032;3.712;2023-12-07T17:21:50;5.4;81
74458;SHT31;62896;51.032;3.712;2023-12-07T17:25:10;5.4;80
74458;SHT31;62896;51.032;3.712;2023-12-07T17:28:30;5.4;80
74458;SHT31;62896;51.032;3.712;2023-12-07T17:31:51;5.4;80
74458;SHT31;62896;51.032;3.712;2023-12-07T17:35:10;5.4;79
74458;SHT31;62896;51.032;3.712;2023-12-07T17:38:30;5.4;79
74458;SHT31;62896;51.032;3.712;2023-12-07T17:41:50;5.4;79
74458;SHT31;62896;51.032;3.712;2023-12-07T17:45:10;5.4;78
74458;SHT31;62896;51.032;3.712;2023-12-07T17:48:30;5.4;78
74458;SHT31;62896;51.032;3.712;2023-12-07T17:51:50;5.4;78
74458;SHT31;62896;51.032;3.712;2023-12-07T17:55:10;5.4;78
74458;SHT31;62896;51.032;3.712;2023-12-07T17:58:30;5.4;78
74458;SHT31;62896;51.032;3.712;2023-12-07T18:01:50;5.4;78
74458;SHT31;62896;51.032;3.712;2023-12-07T18:05:10;5.4;77
74458;SHT31;62896;51.032;3.712;2023-12-07T18:08:30;5.4;77
74458;SHT31;62896;51.032;3.712;2023-12-07T18:11:50;5.4;77
74458;SHT31;62896;51.032;3.712;2023-12-07T18:15:10;5.5;76
74458;SHT31;62896;51.032;3.712;2023-12-07T18:18:30;5.5;76
74458;SHT31;62896;51.032;3.712;2023-12-07T18:21:50;5.5;76
74458;SHT31;62896;51.032;3.712;2023-12-07T18:25:10;5.5;76
74458;SHT31;62896;51.032;3.712;2023-12-07T18:28:30;5.5;76
74458;SHT31;62896;51.032;3.712;2023-12-07T18:31:50;5.5;76
74458;SHT31;62896;51.032;3.712;2023-12-07T18:35:10;5.6;75
74458;SHT31;62896;51.032;3.712;2023-12-07T18:38:30;5.6;75
74458;SHT31;62896;51.032;3.712;2023-12-07T18:41:50;5.6;75
74458;SHT31;62896;51.032;3.712;2023-12-07T18:45:10;5.6;74
74458;SHT31;62896;51.032;3.712;2023-12-07T18:48:30;5.6;74
74458;SHT31;62896;51.032;3.712;2023-12-07T18:51:50;5.6;74
74458;SHT31;62896;51.032;3.712;2023-12-07T18:55:11;5.6;75
74458;SHT31;62896;51.032;3.712;2023-12-07T18:58:30;5.6;75
74458;SHT31;62896;51.032;3.712;2023-12-07T19:01:50;5.6;75
74458;SHT31;62896;51.032;3.712;2023-12-07T19:05:11;5.5;78
74458;SHT31;62896;51.032;3.712;2023-12-07T19:08:30;5.5;78
74458;SHT31;62896;51.032;3.712;2023-12-07T19:11:50;5.5;78
74458;SHT31;62896;51.032;3.712;2023-12-07T19:15:10;5.3;80
74458;SHT31;62896;51.032;3.712;2023-12-07T19:18:30;5.3;80
74458;SHT31;62896;51.032;3.712;2023-12-07T19:21:50;5.3;80
74458;SHT31;62896;51.032;3.712;2023-12-07T19:25:10;5.2;80
74458;SHT31;62896;51.032;3.712;2023-12-07T19:28:30;5.2;80
74458;SHT31;62896;51.032;3.712;2023-12-07T19:31:51;5.2;80
74458;SHT31;62896;51.032;3.712;2023-12-07T19:35:10;5.2;80
74458;SHT31;62896;51.032;3.712;2023-12-07T19:38:31;5.2;80
74458;SHT31;62896;51.032;3.712;2023-12-07T19:41:50;5.2;80
74458;SHT31;62896;51.032;3.712;2023-12-07T19:45:11;5.2;80
74458;SHT31;62896;51.032;3.712;2023-12-07T19:48:31;5.2;80
74458;SHT31;62896;51.032;3.712;2023-12-07T19:51:51;5.2;80
74458;SHT31;62896;51.032;3.712;2023-12-07T19:55:11;5.3;80
74458;SHT31;62896;51.032;3.712;2023-12-07T19:58:31;5.3;80
74458;SHT31;62896;51.032;3.712;2023-12-07T20:01:51;5.3;80
74458;SHT31;62896;51.032;3.712;2023-12-07T20:05:11;5.3;79
74458;SHT31;62896;51.032;3.712;2023-12-07T20:08:31;5.3;79
74458;SHT31;62896;51.032;3.712;2023-12-07T20:11:51;5.3;79
74458;SHT31;62896;51.032;3.712;2023-12-07T20:15:11;5.3;79
74458;SHT31;62896;51.032;3.712;2023-12-07T20:18:31;5.3;79
74458;SHT31;62896;51.032;3.712;2023-12-07T20:21:51;5.3;79
74458;SHT31;62896;51.032;3.712;2023-12-07T20:25:11;5.3;79
74458;SHT31;62896;51.032;3.712;2023-12-07T20:28:31;5.3;79
74458;SHT31;62896;51.032;3.712;2023-12-07T20:31:51;5.3;79
74458;SHT31;62896;51.032;3.712;2023-12-07T20:35:11;5.3;79
74458;SHT31;62896;51.032;3.712;2023-12-07T20:38:31;5.3;79
74458;SHT31;62896;51.032;3.712;2023-12-07T20:41:51;5.3;79
74458;SHT31;62896;51.032;3.712;2023-12-07T20:45:11;5.3;79
74458;SHT31;62896;51.032;3.712;2023-12-07T20:48:31;5.3;79
74458;SHT31;62896;51.032;3.712;2023-12-07T20:51:51;5.3;79
74458;SHT31;62896;51.032;3.712;2023-12-07T20:55:11;5.3;79
74458;SHT31;62896;51.032;3.712;2023-12-07T20:58:31;5.3;79
74458;SHT31;62896;51.032;3.712;2023-12-07T21:01:51;5.3;79
74458;SHT31;62896;51.032;3.712;2023-12-07T21:05:11;5.2;79
74458;SHT31;62896;51.032;3.712;2023-12-07T21:08:31;5.2;79
74458;SHT31;62896;51.032;3.712;2023-12-07T21:11:51;5.2;79
74458;SHT31;62896;51.032;3.712;2023-12-07T21:15:11;5.3;78
74458;SHT31;62896;51.032;3.712;2023-12-07T21:18:31;5.3;78
74458;SHT31;62896;51.032;3.712;2023-12-07T21:21:51;5.3;78
74458;SHT31;62896;51.032;3.712;2023-12-07T21:25:11;5.4;79
74458;SHT31;62896;51.032;3.712;2023-12-07T21:28:31;5.4;79
74458;SHT31;62896;51.032;3.712;2023-12-07T21:31:51;5.4;79
74458;SHT31;62896;51.032;3.712;2023-12-07T21:35:11;5.5;78
74458;SHT31;62896;51.032;3.712;2023-12-07T21:38:31;5.5;78
74458;SHT31;62896;51.032;3.712;2023-12-07T21:41:51;5.5;78
74458;SHT31;62896;51.032;3.712;2023-12-07T21:45:11;5.5;78
74458;SHT31;62896;51.032;3.712;2023-12-07T21:48:31;5.5;78
74458;SHT31;62896;51.032;3.712;2023-12-07T21:51:51;5.5;78
74458;SHT31;62896;51.032;3.712;2023-12-07T21:55:11;5.4;79
74458;SHT31;62896;51.032;3.712;2023-12-07T21:58:31;5.4;79
74458;SHT31;62896;51.032;3.712;2023-12-07T22:01:51;5.4;79
74458;SHT31;62896;51.032;3.712;2023-12-07T22:05:12;5.4;80
74458;SHT31;62896;51.032;3.712;2023-12-07T22:08:31;5.4;80
74458;SHT31;62896;51.032;3.712;2023-12-07T22:11:51;5.4;80
74458;SHT31;62896;51.032;3.712;2023-12-07T22:15:11;5.3;81
74458;SHT31;62896;51.032;3.712;2023-12-07T22:18:31;5.3;81
74458;SHT31;62896;51.032;3.712;2023-12-07T22:21:51;5.3;81
74458;SHT31;62896;51.032;3.712;2023-12-07T22:25:11;5.3;81
74458;SHT31;62896;51.032;3.712;2023-12-07T22:28:31;5.3;81
74458;SHT31;62896;51.032;3.712;2023-12-07T22:31:51;5.3;81
74458;SHT31;62896;51.032;3.712;2023-12-07T22:35:11;5.2;82
74458;SHT31;62896;51.032;3.712;2023-12-07T22:38:31;5.2;82
74458;SHT31;62896;51.032;3.712;2023-12-07T22:41:51;5.2;82
74458;SHT31;62896;51.032;3.712;2023-12-07T22:45:11;5.1;82
74458;SHT31;62896;51.032;3.712;2023-12-07T22:48:31;5.1;82
74458;SHT31;62896;51.032;3.712;2023-12-07T22:51:51;5.1;82